Terminal Aerodrome Forecast
Issued by NWS

Home | Current Version | Previous Version | Text Only | Print | Product List | Glossary On
Versions: 1 2 3 4 5 6 7 8 9 10 11 12 13 14 15 16
000
FTUS45 KGJT 281138
TAFRIL
TAF
KRIL 281138Z 2812/2912 31004KT 6SM -RA BR BKN025 OVC035
     FM281700 29011KT 6SM -RA SCT025 OVC035
     FM282000 27015G25KT 6SM -RA SCT025 BKN035 OVC050
     FM290000 32013G22KT 6SM -SHRA BKN035 OVC050
     FM290300 31020G28KT 6SM BR VCSH OVC040=

USA.gov is the U.S. government's official web portal to all federal, state and local government web resources and services.